Time;durP1;ratioP1;P1;durP2;ratioP2;P2;SDS_P1;SDS_P2;PMS_P1;PMS_P2;Temp;Humidity;BMP_temperature;BMP_pressure;BME280_temperature;BME280_humidity;BME280_pressure;Samples;Min_cycle;Max_cycle;Signal;HPM_P1;HPM_P2
2023/04/10 00:00:52;;;;;;;;;;;;;;;9.75;53.01;99853.56;5090647;28;19976;-42
2023/04/10 00:03:18;;;;;;;;;;;;;;;9.75;53.15;99857.03;5090794;28;19949;-42
2023/04/10 00:05:43;;;;;;;;;;;;;;;9.69;53.36;99851.66;5090213;28;20094;-41
2023/04/10 00:08:08;;;;;;;;;;;;;;;9.76;53.09;99857.84;5091114;28;20392;-42
2023/04/10 00:10:34;;;;;;;;;;;;;;;9.68;53.35;99855.34;5090933;28;19951;-42
2023/04/10 00:12:59;;;;;;;;;;;;;;;9.73;53.40;99851.09;5091365;28;19915;-42
2023/04/10 00:15:25;;;;;;;;;;;;;;;9.74;52.94;99847.41;5090974;28;20083;-42
2023/04/10 00:17:53;;;;;;;;;;;;;;;9.59;53.21;99841.38;5090911;28;19915;-41
2023/04/10 00:20:19;;;;;;;;;;;;;;;9.64;52.97;99848.78;5090900;28;19919;-43
2023/04/10 00:22:45;;;;;;;;;;;;;;;9.71;53.00;99841.66;5091172;28;19918;-43
2023/04/10 00:25:10;;;;;;;;;;;;;;;9.44;53.09;99843.34;5090798;28;20331;-40
2023/04/10 00:27:35;;;;;;;;;;;;;;;9.19;53.56;99833.13;5091075;28;20288;-41
2023/04/10 00:30:01;;;;;;;;;;;;;;;9.04;54.08;99838.53;5090796;28;19916;-41
2023/04/10 00:32:26;;;;;;;;;;;;;;;9.26;53.92;99830.53;5090968;28;19919;-41
2023/04/10 00:34:52;;;;;;;;;;;;;;;9.48;53.15;99828.63;5090883;28;20356;-41
2023/04/10 00:37:17;;;;;;;;;;;;;;;9.21;53.99;99828.44;5090914;28;19916;-42
2023/04/10 00:39:43;;;;;;;;;;;;;;;9.08;53.84;99818.56;5090954;28;19912;-41
2023/04/10 00:42:08;;;;;;;;;;;;;;;8.87;54.80;99822.06;5091171;28;20006;-42
2023/04/10 00:44:36;;;;;;;;;;;;;;;8.75;54.84;99819.06;5090982;28;19920;-42
2023/04/10 00:47:03;;;;;;;;;;;;;;;9.12;54.25;99806.53;5090736;28;20387;-41
2023/04/10 00:49:28;;;;;;;;;;;;;;;8.89;54.95;99814.72;5091058;28;19920;-42
2023/04/10 00:51:54;;;;;;;;;;;;;;;9.09;54.42;99803.44;5090046;28;20316;-42
2023/04/10 00:54:19;;;;;;;;;;;;;;;8.80;55.02;99808.72;5090343;28;19979;-41
2023/04/10 00:56:45;;;;;;;;;;;;;;;8.74;55.35;99798.06;5090555;28;20125;-42
2023/04/10 00:59:11;;;;;;;;;;;;;;;8.64;55.49;99795.69;5090781;28;19927;-42
2023/04/10 01:01:36;;;;;;;;;;;;;;;8.74;55.30;99795.41;5090679;28;19913;-41
2023/04/10 01:04:02;;;;;;;;;;;;;;;8.85;55.00;99788.75;5090680;28;19935;-42
2023/04/10 01:06:45;;;;;;;;;;;;;;;8.87;55.05;99787.56;5090352;28;20429;-42
2023/04/10 01:09:23;;;;;;;;;;;;;;;8.89;54.69;99785.53;5090492;28;19932;-42
2023/04/10 01:11:51;;;;;;;;;;;;;;;9.04;54.29;99782.78;5090477;28;20260;-42
2023/04/10 01:14:32;;;;;;;;;;;;;;;9.04;54.36;99782.78;5090572;28;19916;-40
2023/04/10 01:17:06;;;;;;;;;;;;;;;8.89;55.53;99785.53;5093036;28;20323;-42
2023/04/10 01:19:31;;;;;;;;;;;;;;;8.61;57.28;99786.28;5094149;28;19912;-42
2023/04/10 01:21:58;;;;;;;;;;;;;;;9.06;55.21;99790.56;5093992;28;19919;-42
2023/04/10 01:24:36;;;;;;;;;;;;;;;8.86;56.08;99793.88;5093779;28;20472;-41
2023/04/10 01:27:04;;;;;;;;;;;;;;;9.02;55.99;99794.59;5094028;28;19916;-42
2023/04/10 01:29:31;;;;;;;;;;;;;;;8.98;55.81;99792.31;5093672;28;19919;-40
2023/04/10 01:32:00;;;;;;;;;;;;;;;9.03;55.64;99798.91;5093817;28;19912;-41
2023/04/10 01:34:31;;;;;;;;;;;;;;;8.91;55.68;99791.47;5093828;28;19985;-41
2023/04/10 01:37:01;;;;;;;;;;;;;;;8.80;56.31;99802.59;5093593;28;20462;-42
2023/04/10 01:39:27;;;;;;;;;;;;;;;8.85;56.29;99792.22;5093606;28;19950;-42
2023/04/10 01:41:53;;;;;;;;;;;;;;;8.89;56.20;99792.66;5093602;28;20439;-42
2023/04/10 01:44:22;;;;;;;;;;;;;;;8.79;56.76;99808.91;5093715;28;19943;-41
2023/04/10 01:46:48;;;;;;;;;;;;;;;8.74;56.80;99804.19;5093740;28;19976;-42
2023/04/10 01:49:14;;;;;;;;;;;;;;;8.95;56.99;99799.88;5093396;28;19918;-42
2023/04/10 01:51:40;;;;;;;;;;;;;;;8.69;57.40;99806.56;5093110;28;20321;-42
2023/04/10 01:54:05;;;;;;;;;;;;;;;8.62;57.56;99803.03;5093315;28;19915;-42
2023/04/10 01:56:31;;;;;;;;;;;;;;;8.61;57.49;99812.00;5093292;28;20033;-42
2023/04/10 01:58:57;;;;;;;;;;;;;;;8.64;58.31;99811.63;5093116;28;19920;-41
2023/04/10 02:01:22;;;;;;;;;;;;;;;8.64;58.34;99810.78;5092921;28;19912;-42
2023/04/10 02:03:47;;;;;;;;;;;;;;;8.72;58.20;99802.72;5092586;28;20030;-42
2023/04/10 02:06:27;;;;;;;;;;;;;;;8.78;57.54;99808.09;5092513;28;19999;-41
2023/04/10 02:08:58;;;;;;;;;;;;;;;8.65;58.06;99802.66;5092625;28;19912;-42
2023/04/10 02:11:46;;;;;;;;;;;;;;;8.79;57.42;99792.97;5092618;28;19912;-42
2023/04/10 02:14:15;;;;;;;;;;;;;;;8.58;57.93;99799.94;5092630;28;20470;-42
2023/04/10 02:16:41;;;;;;;;;;;;;;;8.55;58.27;99799.50;5092731;28;19912;-42
2023/04/10 02:19:08;;;;;;;;;;;;;;;8.41;58.79;99804.69;5092518;28;19916;-41
2023/04/10 02:21:34;;;;;;;;;;;;;;;8.56;58.35;99801.13;5092372;28;19912;-41
2023/04/10 02:23:59;;;;;;;;;;;;;;;8.71;57.85;99798.44;5092214;28;19927;-42
2023/04/10 02:26:24;;;;;;;;;;;;;;;8.75;57.71;99797.84;5092273;28;19920;-42
2023/04/10 02:28:50;;;;;;;;;;;;;;;8.53;58.79;99797.03;5091915;28;19916;-42
2023/04/10 02:31:15;;;;;;;;;;;;;;;8.57;58.83;99797.50;5092823;28;20047;-42
2023/04/10 02:33:41;;;;;;;;;;;;;;;8.61;59.39;99796.91;5092631;28;19912;-41
2023/04/10 02:36:06;;;;;;;;;;;;;;;8.53;59.41;99790.88;5103935;28;20379;-42
2023/04/10 02:38:31;;;;;;;;;;;;;;;8.61;59.73;99786.28;5103975;28;20283;-41
2023/04/10 02:40:57;;;;;;;;;;;;;;;8.63;59.50;99783.47;5102290;28;19951;-41
2023/04/10 02:43:22;;;;;;;;;;;;;;;8.51;60.59;99780.50;5103568;28;19913;-42
2023/04/10 02:45:47;;;;;;;;;;;;;;;8.49;61.32;99777.22;5103112;28;20060;-42
2023/04/10 02:48:13;;;;;;;;;;;;;;;8.78;59.86;99776.25;5104648;28;19941;-41
2023/04/10 02:50:38;;;;;;;;;;;;;;;8.60;60.96;99774.06;5112615;28;19911;-42
2023/04/10 02:53:04;;;;;;;;;;;;;;;8.44;61.23;99778.78;5092232;28;19991;-42
2023/04/10 02:55:29;;;;;;;;;;;;;;;8.45;61.71;99775.09;5092615;28;19912;-41
2023/04/10 02:57:55;;;;;;;;;;;;;;;8.54;62.13;99777.44;5091960;28;20414;-41
2023/04/10 03:00:21;;;;;;;;;;;;;;;8.66;62.04;99782.25;5092074;28;19912;-42
2023/04/10 03:02:47;;;;;;;;;;;;;;;8.63;62.10;99774.69;5091899;28;19916;-42
2023/04/10 03:05:12;;;;;;;;;;;;;;;8.82;61.75;99774.03;5092049;28;19969;-42
2023/04/10 03:07:37;;;;;;;;;;;;;;;8.71;62.37;99774.53;5091981;28;19919;-41
2023/04/10 03:10:03;;;;;;;;;;;;;;;8.68;62.37;99781.06;5091851;28;19916;-41
2023/04/10 03:12:28;;;;;;;;;;;;;;;8.23;63.62;99775.06;5091697;28;19912;-42
2023/04/10 03:14:53;;;;;;;;;;;;;;;8.53;63.30;99778.47;5091743;28;20443;-41
2023/04/10 03:17:19;;;;;;;;;;;;;;;8.61;62.33;99772.22;5091525;28;19916;-41
2023/04/10 03:19:44;;;;;;;;;;;;;;;8.90;61.75;99773.06;5091595;28;20383;-42
2023/04/10 03:22:10;;;;;;;;;;;;;;;8.76;61.78;99770.31;5091498;28;20388;-41
2023/04/10 03:24:37;;;;;;;;;;;;;;;8.92;61.06;99779.81;5091622;28;19920;-41
2023/04/10 03:27:02;;;;;;;;;;;;;;;8.65;61.53;99781.44;5091746;28;19923;-42
2023/04/10 03:29:27;;;;;;;;;;;;;;;8.85;60.83;99775.47;5091232;28;20010;-41
2023/04/10 03:31:52;;;;;;;;;;;;;;;8.59;61.35;99775.06;5091377;28;19912;-41
2023/04/10 03:34:18;;;;;;;;;;;;;;;8.49;61.71;99777.22;5091416;28;19985;-41
2023/04/10 03:36:43;;;;;;;;;;;;;;;8.43;61.98;99775.28;5091388;28;19937;-41
2023/04/10 03:39:08;;;;;;;;;;;;;;;8.49;61.58;99771.91;5091142;28;19916;-41
2023/04/10 03:41:34;;;;;;;;;;;;;;;8.71;60.37;99771.91;5091549;28;20027;-42
2023/04/10 03:44:02;;;;;;;;;;;;;;;8.94;59.30;99775.16;5091549;28;20348;-42
2023/04/10 03:46:27;;;;;;;;;;;;;;;8.80;59.56;99773.41;5091012;28;19920;-42
2023/04/10 03:48:52;;;;;;;;;;;;;;;8.94;59.07;99772.50;5091165;28;19919;-42
2023/04/10 03:51:18;;;;;;;;;;;;;;;9.02;58.39;99776.84;5090883;28;19918;-42
2023/04/10 03:53:43;;;;;;;;;;;;;;;8.73;58.94;99772.53;5090950;28;20310;-42
2023/04/10 03:56:08;;;;;;;;;;;;;;;8.55;59.42;99780.94;5090882;28;19912;-42
2023/04/10 03:58:34;;;;;;;;;;;;;;;8.74;59.22;99772.34;5090826;28;19939;-43
2023/04/10 04:00:59;;;;;;;;;;;;;;;8.78;58.68;99775.44;5096588;28;19923;-42
2023/04/10 04:03:24;;;;;;;;;;;;;;;8.65;58.78;99780.63;5105297;28;19998;-42
2023/04/10 04:05:51;;;;;;;;;;;;;;;8.83;58.77;99773.00;5111405;28;19919;-42
2023/04/10 04:08:16;;;;;;;;;;;;;;;8.85;58.33;99778.13;5111867;28;19911;-42
2023/04/10 04:10:41;;;;;;;;;;;;;;;9.09;57.37;99785.69;5111581;28;19912;-41
2023/04/10 04:13:06;;;;;;;;;;;;;;;8.95;58.05;99787.41;5111373;28;19916;-42
2023/04/10 04:15:32;;;;;;;;;;;;;;;9.11;58.00;99788.16;5111299;28;19912;-41
2023/04/10 04:17:57;;;;;;;;;;;;;;;9.71;55.86;99794.66;5111479;28;20061;-42
2023/04/10 04:20:22;;;;;;;;;;;;;;;9.76;55.50;99788.75;5111592;28;19912;-42
2023/04/10 04:22:47;;;;;;;;;;;;;;;9.80;56.71;99797.97;5111300;28;20405;-42
2023/04/10 04:25:13;;;;;;;;;;;;;;;10.50;53.77;99789.88;5111256;28;20019;-42
2023/04/10 04:27:38;;;;;;;;;;;;;;;10.80;53.66;99794.84;5111435;28;19912;-43
2023/04/10 04:30:04;;;;;;;;;;;;;;;10.57;53.79;99794.19;5110977;28;20046;-42
2023/04/10 04:32:30;;;;;;;;;;;;;;;11.22;54.05;99798.09;5111601;28;19969;-42
2023/04/10 04:34:55;;;;;;;;;;;;;;;11.22;53.37;99790.94;5111324;28;19916;-42
2023/04/10 04:37:20;;;;;;;;;;;;;;;11.13;53.48;99784.97;5111158;28;20387;-42
2023/04/10 04:39:45;;;;;;;;;;;;;;;11.37;51.88;99787.25;5111567;28;19998;-43
2023/04/10 04:42:11;;;;;;;;;;;;;;;11.08;52.77;99784.81;5111023;28;19961;-43
2023/04/10 04:44:36;;;;;;;;;;;;;;;10.74;52.89;99783.97;5111015;28;19961;-42
2023/04/10 04:47:01;;;;;;;;;;;;;;;10.74;52.87;99785.81;5111162;28;19919;-47
2023/04/10 04:49:27;;;;;;;;;;;;;;;10.66;53.06;99788.66;5110361;28;20299;-47
2023/04/10 04:51:52;;;;;;;;;;;;;;;10.92;55.40;99794.00;5101775;28;19959;-41
2023/04/10 04:54:17;;;;;;;;;;;;;;;11.78;52.14;99791.44;5094341;28;20462;-42
2023/04/10 04:56:43;;;;;;;;;;;;;;;12.32;49.91;99793.69;5093270;28;19984;-41
2023/04/10 04:59:08;;;;;;;;;;;;;;;12.55;49.39;99795.00;5092562;28;19916;-42
2023/04/10 05:01:33;;;;;;;;;;;;;;;12.50;49.18;99792.16;5093934;28;19912;-41
2023/04/10 05:03:58;;;;;;;;;;;;;;;12.59;48.87;99795.41;5093892;28;19957;-41
2023/04/10 05:06:25;;;;;;;;;;;;;;;12.74;48.62;99792.41;5093993;28;19919;-41
2023/04/10 05:08:51;;;;;;;;;;;;;;;12.77;48.48;99792.78;5093943;28;19919;-42
2023/04/10 05:11:16;;;;;;;;;;;;;;;12.95;48.19;99791.25;5093335;28;20020;-43
2023/04/10 05:13:42;;;;;;;;;;;;;;;12.32;48.91;99798.22;5093051;28;19955;-43
2023/04/10 05:16:07;;;;;;;;;;;;;;;12.13;49.88;99798.09;5093266;28;19912;-43
2023/04/10 05:18:33;;;;;;;;;;;;;;;11.93;50.64;99794.69;5093216;28;19916;-42
2023/04/10 05:20:59;;;;;;;;;;;;;;;12.49;49.29;99801.22;5093183;28;19916;-36
2023/04/10 05:23:24;;;;;;;;;;;;;;;12.81;48.47;99803.84;5092758;28;19969;-36
2023/04/10 05:25:50;;;;;;;;;;;;;;;12.56;48.76;99806.50;5093215;28;20393;-36
2023/04/10 05:28:15;;;;;;;;;;;;;;;12.80;48.58;99816.41;5093038;28;19912;-36
2023/04/10 05:30:40;;;;;;;;;;;;;;;13.17;47.91;99805.84;5093074;28;20298;-36
2023/04/10 05:33:05;;;;;;;;;;;;;;;13.02;47.71;99814.19;5093214;28;19912;-36
2023/04/10 05:35:31;;;;;;;;;;;;;;;13.19;47.44;99825.13;5093014;28;20276;-37
2023/04/10 05:37:57;;;;;;;;;;;;;;;13.32;47.07;99823.44;5092967;28;19916;-35
2023/04/10 05:40:23;;;;;;;;;;;;;;;12.86;47.15;99823.53;5093123;28;20357;-35
2023/04/10 05:42:48;;;;;;;;;;;;;;;12.97;47.47;99821.22;5092788;28;20454;-35
2023/04/10 05:45:13;;;;;;;;;;;;;;;12.64;48.05;99814.25;5093169;28;19912;-36
2023/04/10 05:47:39;;;;;;;;;;;;;;;12.88;47.85;99818.81;5092808;28;20025;-35
2023/04/10 05:50:04;;;;;;;;;;;;;;;13.02;47.35;99814.19;5092377;28;19941;-36
2023/04/10 05:52:30;;;;;;;;;;;;;;;13.38;46.92;99811.84;5092444;28;19950;-36
2023/04/10 05:54:55;;;;;;;;;;;;;;;13.54;46.20;99813.16;5092818;28;19912;-36
2023/04/10 05:57:20;;;;;;;;;;;;;;;13.84;45.93;99805.19;5093124;28;19973;-37
2023/04/10 05:59:45;;;;;;;;;;;;;;;13.38;46.48;99804.63;5092807;28;20388;-37
2023/04/10 06:02:11;;;;;;;;;;;;;;;13.38;46.74;99806.50;5091844;28;20411;-36
2023/04/10 06:04:36;;;;;;;;;;;;;;;13.29;46.67;99812.13;5091932;28;19923;-36
2023/04/10 06:07:01;;;;;;;;;;;;;;;13.89;45.74;99810.72;5092486;28;20006;-37
2023/04/10 06:09:27;;;;;;;;;;;;;;;13.94;45.65;99805.50;5092734;28;19922;-36
2023/04/10 06:11:52;;;;;;;;;;;;;;;14.89;43.83;99811.25;5092190;28;19912;-36
2023/04/10 06:14:20;;;;;;;;;;;;;;;15.10;43.60;99809.88;5091905;28;20343;-37
2023/04/10 06:16:45;;;;;;;;;;;;;;;15.55;42.17;99806.63;5092307;28;19924;-36
2023/04/10 06:19:11;;;;;;;;;;;;;;;15.74;41.13;99818.06;5091992;28;19969;-36
2023/04/10 06:21:36;;;;;;;;;;;;;;;15.87;41.23;99807.09;5091886;28;19919;-36
2023/04/10 06:24:01;;;;;;;;;;;;;;;16.11;40.67;99804.34;5091594;28;19920;-37
2023/04/10 06:26:26;;;;;;;;;;;;;;;16.51;39.88;99808.88;5091586;28;19920;-36
2023/04/10 06:28:52;;;;;;;;;;;;;;;17.16;38.26;99810.25;5091591;28;20002;-37
2023/04/10 06:31:18;;;;;;;;;;;;;;;17.63;37.60;99801.81;5092001;28;19995;-38
2023/04/10 06:33:43;;;;;;;;;;;;;;;17.32;37.20;99804.03;5091011;28;19919;-36
2023/04/10 06:36:09;;;;;;;;;;;;;;;16.97;38.39;99815.06;5091404;28;19977;-37
2023/04/10 06:38:36;;;;;;;;;;;;;;;17.55;36.82;99810.28;5091438;28;19965;-37
2023/04/10 06:41:02;;;;;;;;;;;;;;;17.90;36.74;99804.59;5091636;28;19912;-37
2023/04/10 06:43:27;;;;;;;;;;;;;;;18.54;35.48;99809.38;5091295;28;20394;-37
2023/04/10 06:45:53;;;;;;;;;;;;;;;19.00;34.39;99805.47;5091284;28;19919;-37
2023/04/10 06:48:18;;;;;;;;;;;;;;;20.04;32.73;99806.63;5091460;28;19912;-37
2023/04/10 06:50:44;;;;;;;;;;;;;;;20.81;31.07;99814.97;5091486;28;19947;-36
2023/04/10 06:53:09;;;;;;;;;;;;;;;20.61;31.25;99815.75;5091503;28;19912;-36
2023/04/10 06:55:36;;;;;;;;;;;;;;;21.50;30.58;99815.47;5091409;28;20360;-37
2023/04/10 06:58:01;;;;;;;;;;;;;;;21.72;29.41;99817.03;5090505;28;19959;-36
2023/04/10 07:00:27;;;;;;;;;;;;;;;22.72;27.93;99812.50;5090426;28;19970;-37
2023/04/10 07:02:52;;;;;;;;;;;;;;;23.24;27.05;99813.72;5091002;28;19963;-36
2023/04/10 07:05:18;;;;;;;;;;;;;;;23.80;26.44;99815.88;5090738;28;19920;-36
2023/04/10 07:07:43;;;;;;;;;;;;;;;24.00;26.12;99814.00;5090747;28;19919;-37
2023/04/10 07:10:08;;;;;;;;;;;;;;;23.81;26.52;99812.06;5091510;28;19912;-35
2023/04/10 07:12:34;;;;;;;;;;;;;;;23.30;26.58;99814.50;5091038;28;19923;-36
2023/04/10 07:14:59;;;;;;;;;;;;;;;23.76;25.96;99812.09;5090597;28;20376;-36
2023/04/10 07:17:25;;;;;;;;;;;;;;;24.26;24.93;99816.41;5090597;28;19921;-35
2023/04/10 07:19:50;;;;;;;;;;;;;;;24.42;24.97;99820.53;5090829;28;19916;-36
2023/04/10 07:22:15;;;;;;;;;;;;;;;23.29;25.71;99816.41;5090801;28;19998;-36
2023/04/10 07:24:41;;;;;;;;;;;;;;;23.71;25.03;99819.50;5090885;28;20011;-36
2023/04/10 07:27:06;;;;;;;;;;;;;;;24.34;24.40;99816.56;5090572;28;19981;-37
2023/04/10 07:29:32;;;;;;;;;;;;;;;23.88;25.03;99819.88;5090599;28;19970;-36
2023/04/10 07:31:57;;;;;;;;;;;;;;;24.28;24.24;99820.44;5090663;28;20025;-36
2023/04/10 07:34:22;;;;;;;;;;;;;;;23.99;24.92;99821.38;5090448;28;19961;-36
2023/04/10 07:36:48;;;;;;;;;;;;;;;24.48;24.84;99819.34;5090323;28;19965;-36
2023/04/10 07:39:13;;;;;;;;;;;;;;;24.68;24.13;99817.47;5090087;28;20284;-36
2023/04/10 07:41:39;;;;;;;;;;;;;;;24.47;24.43;99808.78;5090373;28;19951;-35
2023/04/10 07:44:04;;;;;;;;;;;;;;;23.96;24.26;99808.34;5090069;28;19908;-35
2023/04/10 07:46:29;;;;;;;;;;;;;;;22.93;25.02;99803.13;5090042;28;19930;-35
2023/04/10 07:48:55;;;;;;;;;;;;;;;21.48;26.42;99813.03;5090483;28;20002;-35
2023/04/10 07:51:21;;;;;;;;;;;;;;;21.40;26.83;99807.34;5090570;28;20371;-35
2023/04/10 07:53:46;;;;;;;;;;;;;;;20.96;27.26;99806.06;5090548;28;19950;-36
2023/04/10 07:56:18;;;;;;;;;;;;;;;20.23;28.74;99804.28;5090025;28;20024;-36
2023/04/10 07:58:44;;;;;;;;;;;;;;;20.70;27.48;99808.72;5090338;28;20088;-35
2023/04/10 08:01:09;;;;;;;;;;;;;;;19.96;28.19;99803.66;5090351;28;20405;-36
2023/04/10 08:03:42;;;;;;;;;;;;;;;18.79;30.23;99805.28;5090239;28;19955;-36
2023/04/10 08:06:10;;;;;;;;;;;;;;;18.88;30.27;99798.34;5089737;28;20410;-36
2023/04/10 08:08:36;;;;;;;;;;;;;;;18.50;30.53;99792.06;5089901;28;20307;-36
2023/04/10 08:11:02;;;;;;;;;;;;;;;18.78;30.44;99795.56;5090013;28;19920;-37
2023/04/10 08:13:28;;;;;;;;;;;;;;;18.74;30.91;99786.34;5089894;28;20314;-36
2023/04/10 08:15:53;;;;;;;;;;;;;;;18.99;30.14;99790.38;5090040;28;20416;-36
2023/04/10 08:18:18;;;;;;;;;;;;;;;19.32;29.92;99786.53;5089904;28;20415;-35
2023/04/10 08:20:43;;;;;;;;;;;;;;;18.02;31.53;99784.81;5090261;28;19970;-35
2023/04/10 08:23:09;;;;;;;;;;;;;;;18.38;31.43;99785.22;5090131;28;20346;-36
2023/04/10 08:25:34;;;;;;;;;;;;;;;18.53;31.14;99791.56;5089821;28;19928;-36
2023/04/10 08:27:59;;;;;;;;;;;;;;;18.03;31.92;99781.03;5093943;28;20335;-35
2023/04/10 08:30:24;;;;;;;;;;;;;;;17.65;32.15;99775.47;5093935;28;19912;-36
2023/04/10 08:32:50;;;;;;;;;;;;;;;17.35;32.24;99778.53;5093960;28;20394;-35
2023/04/10 08:35:15;;;;;;;;;;;;;;;17.14;32.29;99789.00;5093796;28;19925;-36
2023/04/10 08:37:40;;;;;;;;;;;;;;;17.10;32.08;99771.72;5093800;28;20348;-36
2023/04/10 08:40:06;;;;;;;;;;;;;;;16.76;33.34;99785.13;5093827;28;20299;-36
2023/04/10 08:42:31;;;;;;;;;;;;;;;16.69;32.79;99771.03;5094102;28;19965;-36
2023/04/10 08:44:57;;;;;;;;;;;;;;;16.84;33.17;99778.56;5093866;28;20348;-36
2023/04/10 08:47:26;;;;;;;;;;;;;;;16.27;34.02;99775.91;5093808;28;19938;-36
2023/04/10 08:50:00;;;;;;;;;;;;;;;16.53;33.85;99772.66;5093938;28;20380;-36
2023/04/10 08:52:28;;;;;;;;;;;;;;;16.61;34.30;99766.88;5093346;28;19912;-36
2023/04/10 08:54:54;;;;;;;;;;;;;;;16.50;34.71;99766.94;5093574;28;20300;-36
2023/04/10 08:57:21;;;;;;;;;;;;;;;16.95;34.43;99768.81;5093549;28;19912;-36
2023/04/10 08:59:46;;;;;;;;;;;;;;;16.72;34.22;99753.63;5093053;28;19912;-36
2023/04/10 09:02:12;;;;;;;;;;;;;;;16.53;34.20;99756.53;5093692;28;19947;-36
2023/04/10 09:04:37;;;;;;;;;;;;;;;16.42;33.99;99755.53;5093578;28;20398;-38
2023/04/10 09:07:02;;;;;;;;;;;;;;;16.55;34.33;99753.59;5092921;28;19923;-36
2023/04/10 09:09:31;;;;;;;;;;;;;;;16.11;33.67;99753.34;5093122;28;19969;-38
2023/04/10 09:12:00;;;;;;;;;;;;;;;16.29;34.68;99750.44;5093014;28;19999;-37
2023/04/10 09:14:32;;;;;;;;;;;;;;;16.42;34.18;99744.78;5092889;28;20397;-36
2023/04/10 09:17:18;;;;;;;;;;;;;;;16.51;34.02;99753.28;5092698;28;19923;-36
2023/04/10 09:19:44;;;;;;;;;;;;;;;16.30;34.53;99762.84;5092405;28;19916;-36
2023/04/10 09:22:10;;;;;;;;;;;;;;;15.97;36.09;99755.47;5092836;28;19912;-36
2023/04/10 09:24:37;;;;;;;;;;;;;;;15.66;35.81;99741.44;5092392;28;20394;-36
2023/04/10 09:27:02;;;;;;;;;;;;;;;16.20;35.63;99744.66;5092976;28;19944;-37
2023/04/10 09:29:37;;;;;;;;;;;;;;;16.60;35.01;99748.28;5092690;28;19981;-35
2023/04/10 09:32:03;;;;;;;;;;;;;;;16.85;34.73;99741.75;5092765;28;19912;-35
2023/04/10 09:34:28;;;;;;;;;;;;;;;16.22;35.20;99745.25;5092848;28;19961;-35
2023/04/10 09:36:54;;;;;;;;;;;;;;;16.37;35.71;99738.50;5092697;28;20384;-36
2023/04/10 09:39:20;;;;;;;;;;;;;;;15.98;36.80;99743.72;5092429;28;20315;-37
2023/04/10 09:41:50;;;;;;;;;;;;;;;15.39;38.35;99738.44;5093024;28;19919;-37
2023/04/10 09:44:17;;;;;;;;;;;;;;;15.10;38.89;99740.19;5092419;28;19939;-37
2023/04/10 09:46:42;;;;;;;;;;;;;;;14.86;39.57;99746.38;5092538;28;19916;-36
2023/04/10 09:49:08;;;;;;;;;;;;;;;14.71;40.17;99740.63;5092765;28;19968;-37
2023/04/10 09:51:34;;;;;;;;;;;;;;;15.48;39.14;99739.72;5092613;28;20300;-36
2023/04/10 09:54:00;;;;;;;;;;;;;;;15.54;38.24;99736.09;5092359;28;19912;-37
2023/04/10 09:56:26;;;;;;;;;;;;;;;15.51;38.52;99741.09;5092595;28;19919;-36
2023/04/10 09:58:53;;;;;;;;;;;;;;;16.27;38.08;99739.13;5092304;28;19952;-37
2023/04/10 10:01:19;;;;;;;;;;;;;;;16.41;37.79;99736.97;5092272;28;19979;-36
2023/04/10 10:03:45;;;;;;;;;;;;;;;15.97;37.97;99734.84;5092825;28;19919;-36
2023/04/10 10:06:10;;;;;;;;;;;;;;;15.74;39.53;99732.22;5092139;28;19912;-37
2023/04/10 10:08:36;;;;;;;;;;;;;;;15.16;41.29;99740.09;5091714;28;20392;-37
2023/04/10 10:11:07;;;;;;;;;;;;;;;15.52;39.64;99738.19;5092157;28;19995;-37
2023/04/10 10:13:48;;;;;;;;;;;;;;;15.43;40.80;99739.59;5091152;28;19953;-37
2023/04/10 10:16:22;;;;;;;;;;;;;;;15.37;39.97;99732.50;5091913;28;19912;-35
2023/04/10 10:19:00;;;;;;;;;;;;;;;15.41;40.95;99739.03;5092103;28;19920;-37
2023/04/10 10:21:27;;;;;;;;;;;;;;;15.36;41.61;99744.28;5091842;28;19918;-38
2023/04/10 10:23:53;;;;;;;;;;;;;;;14.71;42.79;99739.81;5092123;28;19924;-39
2023/04/10 10:26:20;;;;;;;;;;;;;;;14.56;44.02;99730.31;5091937;28;20328;-36
2023/04/10 10:28:46;;;;;;;;;;;;;;;14.69;43.86;99737.38;5092017;28;19934;-37
2023/04/10 10:31:12;;;;;;;;;;;;;;;13.97;45.27;99735.47;5091571;28;20307;-36
2023/04/10 10:33:37;;;;;;;;;;;;;;;14.17;45.92;99737.09;5091324;28;20026;-35
2023/04/10 10:36:03;;;;;;;;;;;;;;;14.34;44.45;99730.06;5091489;28;19908;-37
2023/04/10 10:38:29;;;;;;;;;;;;;;;14.47;44.29;99731.72;5091613;28;20376;-36
2023/04/10 10:41:05;;;;;;;;;;;;;;;14.36;45.18;99733.31;5091822;28;19964;-36
2023/04/10 10:43:49;;;;;;;;;;;;;;;14.54;45.88;99723.56;5091577;28;19912;-36
2023/04/10 10:46:28;;;;;;;;;;;;;;;14.87;44.66;99723.09;5091452;28;19916;-37
2023/04/10 10:48:57;;;;;;;;;;;;;;;14.66;44.59;99730.63;5090931;28;20070;-38
2023/04/10 10:51:22;;;;;;;;;;;;;;;14.28;45.45;99717.59;5091289;28;19986;-38
2023/04/10 10:53:47;;;;;;;;;;;;;;;14.18;45.50;99712.75;5091277;28;19957;-35
2023/04/10 10:56:19;;;;;;;;;;;;;;;13.96;46.38;99708.97;5091074;28;19912;-37
2023/04/10 10:58:51;;;;;;;;;;;;;;;13.96;45.27;99707.13;5091044;28;19965;-36
2023/04/10 11:01:17;;;;;;;;;;;;;;;13.77;45.99;99710.88;5091082;28;20453;-36
2023/04/10 11:03:45;;;;;;;;;;;;;;;13.82;46.23;99711.00;5091199;28;19916;-37
2023/04/10 11:06:15;;;;;;;;;;;;;;;13.82;45.22;99701.13;5091033;28;20014;-38
2023/04/10 11:08:51;;;;;;;;;;;;;;;13.91;44.47;99698.13;5090759;28;20367;-38
2023/04/10 11:11:16;;;;;;;;;;;;;;;13.97;45.02;99697.22;5090900;28;19912;-36
2023/04/10 11:14:02;;;;;;;;;;;;;;;13.86;46.16;99707.66;5090632;28;20319;-37
2023/04/10 11:16:31;;;;;;;;;;;;;;;13.64;46.78;99709.16;5090607;28;19912;-36
2023/04/10 11:19:00;;;;;;;;;;;;;;;13.79;46.65;99703.44;5090682;28;19916;-36
2023/04/10 11:21:27;;;;;;;;;;;;;;;13.61;46.62;99705.09;5090885;28;20142;-36
2023/04/10 11:23:53;;;;;;;;;;;;;;;13.87;47.25;99697.78;5090378;28;20039;-37
2023/04/10 11:26:38;;;;;;;;;;;;;;;14.27;45.24;99705.25;5090478;28;19975;-36
2023/04/10 11:29:18;;;;;;;;;;;;;;;13.88;46.22;99699.41;5090982;28;19912;-36
2023/04/10 11:31:44;;;;;;;;;;;;;;;13.87;45.13;99697.78;5090439;28;19973;-36
2023/04/10 11:34:10;;;;;;;;;;;;;;;13.91;46.32;99704.28;5090980;28;20002;-36
2023/04/10 11:36:42;;;;;;;;;;;;;;;13.80;47.39;99703.22;5090687;28;19912;-36
2023/04/10 11:39:08;;;;;;;;;;;;;;;14.68;45.04;99702.78;5090518;28;19924;-37
2023/04/10 11:41:35;;;;;;;;;;;;;;;14.52;44.57;99714.97;5089564;28;19912;-36
2023/04/10 11:44:02;;;;;;;;;;;;;;;14.02;46.34;99708.88;5091128;28;19912;-36
2023/04/10 11:46:27;;;;;;;;;;;;;;;13.86;46.15;99717.56;5090357;28;19930;-36
2023/04/10 11:48:59;;;;;;;;;;;;;;;13.42;47.93;99709.63;5090617;28;19912;-36
2023/04/10 11:51:26;;;;;;;;;;;;;;;13.05;49.73;99722.91;5090663;28;19913;-36
2023/04/10 11:54:03;;;;;;;;;;;;;;;13.50;49.06;99708.53;5090104;28;19993;-36
2023/04/10 11:56:28;;;;;;;;;;;;;;;13.25;49.14;99705.84;5090186;28;19970;-36
2023/04/10 11:58:54;;;;;;;;;;;;;;;13.02;51.02;99699.34;5090236;28;19959;-35
2023/04/10 12:01:22;;;;;;;;;;;;;;;13.40;49.83;99695.69;5090813;28;19919;-36
2023/04/10 12:03:48;;;;;;;;;;;;;;;13.50;49.60;99687.13;5090487;28;20365;-36
2023/04/10 12:06:14;;;;;;;;;;;;;;;13.49;49.45;99696.19;5090085;28;19924;-36
2023/04/10 12:08:49;;;;;;;;;;;;;;;13.40;49.79;99689.50;5089716;28;19912;-37
2023/04/10 12:11:33;;;;;;;;;;;;;;;13.47;49.45;99680.34;5090081;28;19923;-42
2023/04/10 12:13:58;;;;;;;;;;;;;;;13.29;49.79;99685.69;5089999;28;19989;-43
2023/04/10 12:16:25;;;;;;;;;;;;;;;13.34;50.52;99679.69;5090096;28;19912;-42
2023/04/10 12:18:51;;;;;;;;;;;;;;;13.37;49.25;99680.06;5089819;28;19923;-43
2023/04/10 12:21:16;;;;;;;;;;;;;;;13.61;48.74;99673.00;5090180;28;19912;-43
2023/04/10 12:23:41;;;;;;;;;;;;;;;13.41;48.54;99667.09;5089840;28;19955;-42
2023/04/10 12:26:17;;;;;;;;;;;;;;;13.47;48.32;99676.88;5089879;28;19997;-42
2023/04/10 12:28:53;;;;;;;;;;;;;;;13.35;48.33;99666.13;5089589;28;19912;-43
2023/04/10 12:31:26;;;;;;;;;;;;;;;13.77;47.57;99646.69;5089546;28;20014;-43
2023/04/10 12:33:56;;;;;;;;;;;;;;;13.97;47.72;99649.06;5089957;28;19943;-43
2023/04/10 12:36:22;;;;;;;;;;;;;;;13.86;47.34;99650.69;5089702;28;19916;-43
2023/04/10 12:38:48;;;;;;;;;;;;;;;13.81;46.78;99639.84;5089451;28;19916;-43
2023/04/10 12:41:19;;;;;;;;;;;;;;;14.54;46.68;99638.69;5089618;28;19920;-42
2023/04/10 12:43:44;;;;;;;;;;;;;;;14.38;45.96;99631.38;5089363;28;19965;-42
2023/04/10 12:46:21;;;;;;;;;;;;;;;13.86;46.33;99638.13;5089706;28;19920;-36
2023/04/10 12:48:46;;;;;;;;;;;;;;;14.07;46.16;99628.75;5088851;28;19912;-43